ADDS METAR Data INFO
IDs: Format: Raw Decoded Include TAF

Data at: 1356 UTC 17 Dec 2017

KRYY 171348Z VRB04KT 10SM FEW095 02/M01 A3024 RMK AO2 SLP962 T00221006
KRYY 171248Z 03003KT 10SM CLR 01/00 A3023 RMK AO2 SLP959 T00060000
KRYY 171148Z 06003KT 10SM CLR 00/M01 A3021 RMK AO2 SLP952 T00001011 10000 21022 56012
KRYY 171048Z AUTO 00000KT 10SM CLR M01/M03 A3022 RMK AO2 SLP954 T10111028 FZRANO
KRYY 170948Z AUTO 00000KT 10SM CLR M01/M03 A3023 RMK AO2 SLP957 T10111028 FZRANO
KRYY 170848Z AUTO 00000KT 10SM CLR M02/M03 A3025 RMK AO2 SLP963 T10171028 56011 FZRANO
KRYY 170748Z AUTO 00000KT 10SM CLR M02/M03 A3026 RMK AO2 SLP969 T10221033 FZRANO
KRYY 170648Z AUTO 00000KT 10SM CLR M02/M04 A3026 RMK AO2 SLP970 T10221039 FZRANO
KRYY 170548Z AUTO 00000KT 10SM CLR M01/M03 A3028 RMK AO2 SLP975 T10111028 10044 21011 58002 FZRANO
KRYY 170448Z AUTO 00000KT 10SM CLR 00/M02 A3029 RMK AO2 SLP979 T00001017 FZRANO
KRYY 170348Z 00000KT 10SM CLR 01/M02 A3029 RMK AO2 SLP978 T00061022 400941039
KRYY 170248Z 00000KT 10SM CLR 01/M02 A3029 RMK AO2 SLP978 T00111022 53008
KRYY 170148Z 00000KT 10SM CLR 02/M02 A3027 RMK AO2 SLP973 T00171022
KRYY 170048Z 00000KT 10SM CLR 02/M02 A3027 RMK AO2 SLP971 T00221022
KRYY 162348Z 00000KT 10SM CLR 03/M02 A3026 RMK AO2 SLP969 T00331022 10094 20033 53004
KRYY 162248Z 31003KT 10SM CLR 08/M03 A3025 RMK AO2 SLP965 T00781028
KRYY 162148Z 00000KT 10SM CLR 09/M03 A3024 RMK AO2 SLP962 T00941033
KRYY 162048Z 27006KT 10SM CLR 09/M03 A3025 RMK AO2 SLP966 T00941033 55010
KRYY 161948Z 27007KT 10SM CLR 08/M03 A3025 RMK AO2 SLP965 T00831033
KRYY 161748Z VRB03KT 10SM CLR 07/M04 A3028 RMK AO2 SLP976 T00721039 10072 21039 58009
KRYY 161648Z VRB04KT 10SM CLR 06/M04 A3031 RMK AO2 SLP984 T00561044
KRYY 161548Z 27004KT 10SM CLR 03/M04 A3032 RMK AO2 SLP988 T00331039
KRYY 161448Z 26005KT 10SM CLR 01/M03 A3031 RMK AO2 SLP985 T00111033 53016
KRYY 161348Z 27004KT 10SM CLR M01/M04 A3029 RMK AO2 SLP977 T10111039
KRYY 161248Z VRB03KT 10SM CLR M03/M05 A3027 RMK AO2 SLP972 T10281050
KRYY 161148Z 27005KT 10SM CLR M04/M06 A3026 RMK AO2 SLP970 T10391056 11017 21039 53007
KRYY 161048Z AUTO 28005KT 10SM CLR M03/M05 A3024 RMK AO2 SLP963 T10281050 FZRANO
KRYY 160948Z AUTO 25005KT 10SM CLR M03/M06 A3023 RMK AO2 SLP959 T10331056 FZRANO
KRYY 160848Z AUTO 24003KT 10SM CLR M03/M05 A3024 RMK AO2 SLP962 T10331050 53006 FZRANO
KRYY 160748Z AUTO 23003KT 10SM CLR M03/M06 A3023 RMK AO2 SLP960 T10331056 FZRANO
KRYY 160648Z AUTO 25004KT 10SM CLR M02/M05 A3022 RMK AO2 SLP956 T10221050 FZRANO
KRYY 160548Z AUTO 27004KT 10SM CLR M02/M05 A3022 RMK AO2 SLP956 T10171050 10011 21017 50010 FZRANO
KRYY 160448Z AUTO 29004KT 10SM CLR M02/M05 A3022 RMK AO2 SLP957 T10171050 FZRANO
KRYY 160348Z AUTO 28004KT 10SM CLR M01/M04 A3021 RMK AO2 SLP953 T10111044 400781011 FZRANO
KRYY 160248Z 31003KT 10SM CLR M01/M04 A3019 RMK AO2 SLP946 T10061044 51007